sensor_id;sensor_type;location;lat;lon;timestamp;P1;durP1;ratioP1;P2;durP2;ratioP2
50900;SDS011;36879;51.416;6.678;2023-06-22T06:31:03;19.65;;;12.60;;
50900;SDS011;36879;51.416;6.678;2023-06-22T06:33:32;17.50;;;12.60;;
50900;SDS011;36879;51.416;6.678;2023-06-22T06:35:58;22.13;;;13.68;;
50900;SDS011;36879;51.416;6.678;2023-06-22T06:38:26;21.73;;;13.63;;
50900;SDS011;36879;51.416;6.678;2023-06-22T06:40:53;19.27;;;13.63;;
50900;SDS011;36879;51.416;6.678;2023-06-22T06:43:19;15.25;;;12.40;;
50900;SDS011;36879;51.416;6.678;2023-06-22T06:45:45;17.95;;;13.45;;
50900;SDS011;36879;51.416;6.678;2023-06-22T06:48:11;17.02;;;11.80;;
50900;SDS011;36879;51.416;6.678;2023-06-22T06:50:37;17.80;;;12.43;;
50900;SDS011;36879;51.416;6.678;2023-06-22T06:53:03;19.45;;;12.45;;
50900;SDS011;36879;51.416;6.678;2023-06-22T06:55:30;16.98;;;12.77;;
50900;SDS011;36879;51.416;6.678;2023-06-22T06:57:57;20.17;;;12.93;;
50900;SDS011;36879;51.416;6.678;2023-06-22T07:00:24;17.48;;;11.63;;
50900;SDS011;36879;51.416;6.678;2023-06-22T07:02:51;19.42;;;13.20;;
50900;SDS011;36879;51.416;6.678;2023-06-22T07:05:17;22.50;;;13.00;;
50900;SDS011;36879;51.416;6.678;2023-06-22T07:07:43;20.75;;;12.48;;
50900;SDS011;36879;51.416;6.678;2023-06-22T07:10:09;18.45;;;13.23;;
50900;SDS011;36879;51.416;6.678;2023-06-22T07:12:36;15.65;;;12.23;;
50900;SDS011;36879;51.416;6.678;2023-06-22T07:15:05;15.05;;;12.13;;
50900;SDS011;36879;51.416;6.678;2023-06-22T07:17:37;15.80;;;11.52;;
50900;SDS011;36879;51.416;6.678;2023-06-22T07:20:07;16.15;;;13.75;;
50900;SDS011;36879;51.416;6.678;2023-06-22T07:22:37;16.60;;;12.45;;
50900;SDS011;36879;51.416;6.678;2023-06-22T07:25:03;18.33;;;12.23;;
50900;SDS011;36879;51.416;6.678;2023-06-22T07:27:39;19.60;;;15.00;;
50900;SDS011;36879;51.416;6.678;2023-06-22T07:30:08;19.27;;;13.30;;
50900;SDS011;36879;51.416;6.678;2023-06-22T07:32:35;18.35;;;13.05;;
50900;SDS011;36879;51.416;6.678;2023-06-22T07:35:01;16.92;;;12.50;;
50900;SDS011;36879;51.416;6.678;2023-06-22T07:37:28;14.48;;;11.90;;
50900;SDS011;36879;51.416;6.678;2023-06-22T07:39:54;15.40;;;11.48;;
50900;SDS011;36879;51.416;6.678;2023-06-22T07:42:26;14.60;;;11.60;;
50900;SDS011;36879;51.416;6.678;2023-06-22T07:44:52;19.85;;;12.00;;
50900;SDS011;36879;51.416;6.678;2023-06-22T07:47:18;17.38;;;12.05;;
50900;SDS011;36879;51.416;6.678;2023-06-22T07:49:44;17.02;;;12.75;;
50900;SDS011;36879;51.416;6.678;2023-06-22T07:52:11;20.02;;;13.43;;
50900;SDS011;36879;51.416;6.678;2023-06-22T07:54:37;21.60;;;13.00;;
50900;SDS011;36879;51.416;6.678;2023-06-22T07:57:03;18.40;;;13.50;;
50900;SDS011;36879;51.416;6.678;2023-06-22T07:59:29;19.27;;;14.63;;
50900;SDS011;36879;51.416;6.678;2023-06-22T08:01:55;21.23;;;13.80;;
50900;SDS011;36879;51.416;6.678;2023-06-22T08:04:21;22.30;;;14.98;;
50900;SDS011;36879;51.416;6.678;2023-06-22T08:06:47;18.00;;;14.90;;
50900;SDS011;36879;51.416;6.678;2023-06-22T08:09:14;29.35;;;15.55;;
50900;SDS011;36879;51.416;6.678;2023-06-22T08:11:40;20.75;;;14.10;;
50900;SDS011;36879;51.416;6.678;2023-06-22T08:14:06;20.02;;;15.90;;
50900;SDS011;36879;51.416;6.678;2023-06-22T08:16:32;20.13;;;15.98;;
50900;SDS011;36879;51.416;6.678;2023-06-22T08:18:58;22.52;;;17.60;;
50900;SDS011;36879;51.416;6.678;2023-06-22T08:21:24;22.38;;;16.38;;
50900;SDS011;36879;51.416;6.678;2023-06-22T08:23:50;25.58;;;16.23;;
50900;SDS011;36879;51.416;6.678;2023-06-22T08:26:16;21.15;;;16.98;;
50900;SDS011;36879;51.416;6.678;2023-06-22T08:28:42;21.20;;;15.30;;
50900;SDS011;36879;51.416;6.678;2023-06-22T08:31:08;24.08;;;17.13;;
50900;SDS011;36879;51.416;6.678;2023-06-22T08:33:34;19.38;;;15.93;;
50900;SDS011;36879;51.416;6.678;2023-06-22T08:36:00;21.00;;;17.17;;
50900;SDS011;36879;51.416;6.678;2023-06-22T08:38:26;22.42;;;18.13;;
50900;SDS011;36879;51.416;6.678;2023-06-22T08:40:52;22.67;;;16.65;;
50900;SDS011;36879;51.416;6.678;2023-06-22T08:43:18;22.10;;;16.20;;
50900;SDS011;36879;51.416;6.678;2023-06-22T08:45:44;24.58;;;15.73;;
50900;SDS011;36879;51.416;6.678;2023-06-22T08:48:11;28.20;;;15.88;;
50900;SDS011;36879;51.416;6.678;2023-06-22T08:50:36;22.23;;;16.70;;
50900;SDS011;36879;51.416;6.678;2023-06-22T08:53:03;22.40;;;15.40;;
50900;SDS011;36879;51.416;6.678;2023-06-22T08:55:29;19.58;;;17.33;;
50900;SDS011;36879;51.416;6.678;2023-06-22T08:57:55;21.00;;;15.20;;
50900;SDS011;36879;51.416;6.678;2023-06-22T09:00:21;22.25;;;17.52;;
50900;SDS011;36879;51.416;6.678;2023-06-22T09:02:47;26.38;;;18.58;;
50900;SDS011;36879;51.416;6.678;2023-06-22T09:05:14;20.88;;;16.02;;
50900;SDS011;36879;51.416;6.678;2023-06-22T09:07:40;21.23;;;16.83;;
50900;SDS011;36879;51.416;6.678;2023-06-22T09:10:07;20.10;;;15.02;;
50900;SDS011;36879;51.416;6.678;2023-06-22T09:12:33;21.70;;;16.15;;
50900;SDS011;36879;51.416;6.678;2023-06-22T09:15:00;24.90;;;15.73;;
50900;SDS011;36879;51.416;6.678;2023-06-22T09:17:26;17.17;;;14.48;;
50900;SDS011;36879;51.416;6.678;2023-06-22T09:19:52;19.45;;;15.63;;
50900;SDS011;36879;51.416;6.678;2023-06-22T09:22:18;17.88;;;15.27;;
50900;SDS011;36879;51.416;6.678;2023-06-22T09:24:44;20.95;;;15.55;;
50900;SDS011;36879;51.416;6.678;2023-06-22T09:27:10;21.52;;;15.98;;
50900;SDS011;36879;51.416;6.678;2023-06-22T09:29:36;24.02;;;15.82;;
50900;SDS011;36879;51.416;6.678;2023-06-22T09:32:02;20.75;;;15.10;;
50900;SDS011;36879;51.416;6.678;2023-06-22T09:34:28;18.30;;;15.35;;
50900;SDS011;36879;51.416;6.678;2023-06-22T09:36:56;23.58;;;16.15;;
50900;SDS011;36879;51.416;6.678;2023-06-22T09:39:22;24.88;;;17.55;;
50900;SDS011;36879;51.416;6.678;2023-06-22T09:41:48;22.65;;;15.18;;
50900;SDS011;36879;51.416;6.678;2023-06-22T09:44:14;19.40;;;15.15;;
50900;SDS011;36879;51.416;6.678;2023-06-22T09:46:40;19.42;;;15.60;;
50900;SDS011;36879;51.416;6.678;2023-06-22T09:49:06;17.05;;;14.50;;
50900;SDS011;36879;51.416;6.678;2023-06-22T09:51:32;30.40;;;25.33;;
50900;SDS011;36879;51.416;6.678;2023-06-22T09:53:58;19.42;;;16.05;;
50900;SDS011;36879;51.416;6.678;2023-06-22T09:56:24;18.85;;;15.75;;
50900;SDS011;36879;51.416;6.678;2023-06-22T09:58:53;18.20;;;14.93;;
50900;SDS011;36879;51.416;6.678;2023-06-22T10:01:19;20.70;;;15.77;;
50900;SDS011;36879;51.416;6.678;2023-06-22T10:03:46;20.52;;;13.85;;
50900;SDS011;36879;51.416;6.678;2023-06-22T10:06:12;20.98;;;13.48;;
50900;SDS011;36879;51.416;6.678;2023-06-22T10:08:38;19.50;;;14.05;;
50900;SDS011;36879;51.416;6.678;2023-06-22T10:11:05;16.67;;;14.75;;
50900;SDS011;36879;51.416;6.678;2023-06-22T10:13:31;17.90;;;15.07;;
50900;SDS011;36879;51.416;6.678;2023-06-22T10:15:57;19.52;;;13.95;;
50900;SDS011;36879;51.416;6.678;2023-06-22T10:18:23;18.25;;;14.18;;
50900;SDS011;36879;51.416;6.678;2023-06-22T10:20:50;17.88;;;14.05;;
50900;SDS011;36879;51.416;6.678;2023-06-22T10:23:16;18.27;;;15.18;;
50900;SDS011;36879;51.416;6.678;2023-06-22T10:25:42;14.88;;;13.25;;
50900;SDS011;36879;51.416;6.678;2023-06-22T10:28:08;15.57;;;13.60;;
50900;SDS011;36879;51.416;6.678;2023-06-22T10:30:34;16.52;;;14.82;;
50900;SDS011;36879;51.416;6.678;2023-06-22T10:33:00;15.65;;;13.32;;
50900;SDS011;36879;51.416;6.678;2023-06-22T10:35:26;15.52;;;13.50;;
50900;SDS011;36879;51.416;6.678;2023-06-22T10:37:52;17.92;;;13.93;;
50900;SDS011;36879;51.416;6.678;2023-06-22T10:40:19;16.05;;;13.00;;
50900;SDS011;36879;51.416;6.678;2023-06-22T10:42:45;17.63;;;14.52;;
50900;SDS011;36879;51.416;6.678;2023-06-22T10:45:11;17.58;;;14.07;;
50900;SDS011;36879;51.416;6.678;2023-06-22T10:47:38;16.58;;;14.88;;
50900;SDS011;36879;51.416;6.678;2023-06-22T10:50:07;16.55;;;13.90;;
50900;SDS011;36879;51.416;6.678;2023-06-22T10:52:33;16.95;;;11.80;;
50900;SDS011;36879;51.416;6.678;2023-06-22T10:54:59;17.17;;;13.25;;
50900;SDS011;36879;51.416;6.678;2023-06-22T10:57:25;14.15;;;12.68;;
50900;SDS011;36879;51.416;6.678;2023-06-22T10:59:51;18.70;;;14.65;;
50900;SDS011;36879;51.416;6.678;2023-06-22T11:02:17;17.70;;;14.85;;
50900;SDS011;36879;51.416;6.678;2023-06-22T11:04:43;15.70;;;13.43;;
50900;SDS011;36879;51.416;6.678;2023-06-22T11:07:09;17.35;;;14.32;;
50900;SDS011;36879;51.416;6.678;2023-06-22T11:09:35;17.50;;;15.10;;
50900;SDS011;36879;51.416;6.678;2023-06-22T11:12:03;20.10;;;15.82;;
50900;SDS011;36879;51.416;6.678;2023-06-22T11:14:29;16.02;;;14.23;;
50900;SDS011;36879;51.416;6.678;2023-06-22T11:16:55;17.27;;;13.43;;
50900;SDS011;36879;51.416;6.678;2023-06-22T11:19:21;18.48;;;14.95;;
50900;SDS011;36879;51.416;6.678;2023-06-22T11:21:47;20.63;;;17.10;;
50900;SDS011;36879;51.416;6.678;2023-06-22T11:24:13;22.52;;;17.80;;
50900;SDS011;36879;51.416;6.678;2023-06-22T11:26:40;24.27;;;18.80;;
50900;SDS011;36879;51.416;6.678;2023-06-22T11:29:06;20.92;;;18.40;;
50900;SDS011;36879;51.416;6.678;2023-06-22T11:31:33;30.25;;;22.60;;
50900;SDS011;36879;51.416;6.678;2023-06-22T11:33:59;47.22;;;26.67;;
50900;SDS011;36879;51.416;6.678;2023-06-22T11:36:25;41.03;;;28.90;;
50900;SDS011;36879;51.416;6.678;2023-06-22T11:38:52;48.40;;;33.50;;
50900;SDS011;36879;51.416;6.678;2023-06-22T11:41:18;53.10;;;38.45;;
50900;SDS011;36879;51.416;6.678;2023-06-22T11:43:44;71.05;;;42.85;;
50900;SDS011;36879;51.416;6.678;2023-06-22T11:46:10;74.10;;;41.72;;
50900;SDS011;36879;51.416;6.678;2023-06-22T11:48:36;83.25;;;55.25;;
50900;SDS011;36879;51.416;6.678;2023-06-22T11:51:02;75.28;;;48.60;;
50900;SDS011;36879;51.416;6.678;2023-06-22T11:53:28;83.90;;;49.70;;
50900;SDS011;36879;51.416;6.678;2023-06-22T11:55:54;95.82;;;52.80;;
50900;SDS011;36879;51.416;6.678;2023-06-22T11:58:21;100.07;;;53.20;;
50900;SDS011;36879;51.416;6.678;2023-06-22T12:00:47;108.38;;;56.25;;
50900;SDS011;36879;51.416;6.678;2023-06-22T12:03:13;119.32;;;58.08;;
50900;SDS011;36879;51.416;6.678;2023-06-22T12:05:40;113.15;;;60.80;;
50900;SDS011;36879;51.416;6.678;2023-06-22T12:08:06;111.28;;;59.58;;
50900;SDS011;36879;51.416;6.678;2023-06-22T12:10:32;109.50;;;61.13;;
50900;SDS011;36879;51.416;6.678;2023-06-22T12:12:59;105.43;;;60.97;;
50900;SDS011;36879;51.416;6.678;2023-06-22T12:15:25;116.18;;;60.70;;
50900;SDS011;36879;51.416;6.678;2023-06-22T12:17:51;116.97;;;61.28;;
50900;SDS011;36879;51.416;6.678;2023-06-22T12:20:17;114.93;;;63.40;;
50900;SDS011;36879;51.416;6.678;2023-06-22T12:22:43;126.60;;;66.93;;
50900;SDS011;36879;51.416;6.678;2023-06-22T12:25:10;132.65;;;69.70;;
50900;SDS011;36879;51.416;6.678;2023-06-22T12:27:36;330.60;;;92.78;;
50900;SDS011;36879;51.416;6.678;2023-06-22T12:30:02;127.10;;;70.43;;
50900;SDS011;36879;51.416;6.678;2023-06-22T12:32:28;127.75;;;71.00;;
50900;SDS011;36879;51.416;6.678;2023-06-22T12:34:55;121.25;;;70.55;;
50900;SDS011;36879;51.416;6.678;2023-06-22T12:37:21;122.28;;;66.53;;
50900;SDS011;36879;51.416;6.678;2023-06-22T12:39:47;114.40;;;63.85;;
50900;SDS011;36879;51.416;6.678;2023-06-22T12:42:13;100.28;;;60.65;;
50900;SDS011;36879;51.416;6.678;2023-06-22T12:44:39;98.60;;;61.55;;
50900;SDS011;36879;51.416;6.678;2023-06-22T12:47:06;99.15;;;59.00;;
50900;SDS011;36879;51.416;6.678;2023-06-22T12:49:33;103.22;;;59.72;;
50900;SDS011;36879;51.416;6.678;2023-06-22T12:51:59;98.93;;;58.95;;
50900;SDS011;36879;51.416;6.678;2023-06-22T12:54:25;90.43;;;57.00;;
50900;SDS011;36879;51.416;6.678;2023-06-22T12:56:51;84.90;;;53.88;;
50900;SDS011;36879;51.416;6.678;2023-06-22T12:59:17;83.60;;;53.17;;
50900;SDS011;36879;51.416;6.678;2023-06-22T13:01:43;85.68;;;53.22;;
50900;SDS011;36879;51.416;6.678;2023-06-22T13:04:10;85.88;;;55.03;;
50900;SDS011;36879;51.416;6.678;2023-06-22T13:06:39;81.70;;;54.05;;
50900;SDS011;36879;51.416;6.678;2023-06-22T13:09:05;83.68;;;55.78;;
50900;SDS011;36879;51.416;6.678;2023-06-22T13:11:31;90.43;;;57.33;;
50900;SDS011;36879;51.416;6.678;2023-06-22T13:13:57;78.22;;;53.33;;
50900;SDS011;36879;51.416;6.678;2023-06-22T13:16:23;86.75;;;54.35;;
50900;SDS011;36879;51.416;6.678;2023-06-22T13:18:49;140.07;;;63.17;;
50900;SDS011;36879;51.416;6.678;2023-06-22T13:21:15;97.65;;;58.85;;
50900;SDS011;36879;51.416;6.678;2023-06-22T13:23:41;96.00;;;59.58;;
50900;SDS011;36879;51.416;6.678;2023-06-22T13:26:07;109.70;;;61.67;;
50900;SDS011;36879;51.416;6.678;2023-06-22T13:28:33;105.70;;;60.30;;
50900;SDS011;36879;51.416;6.678;2023-06-22T13:30:59;129.60;;;65.68;;
50900;SDS011;36879;51.416;6.678;2023-06-22T13:33:25;116.78;;;65.20;;
50900;SDS011;36879;51.416;6.678;2023-06-22T13:35:51;102.25;;;61.83;;
50900;SDS011;36879;51.416;6.678;2023-06-22T13:38:17;107.78;;;65.40;;
50900;SDS011;36879;51.416;6.678;2023-06-22T13:40:43;106.55;;;64.05;;
50900;SDS011;36879;51.416;6.678;2023-06-22T13:43:09;102.47;;;61.08;;
50900;SDS011;36879;51.416;6.678;2023-06-22T13:45:35;107.88;;;64.15;;
50900;SDS011;36879;51.416;6.678;2023-06-22T13:48:01;96.72;;;61.05;;
50900;SDS011;36879;51.416;6.678;2023-06-22T13:50:27;93.57;;;60.33;;
50900;SDS011;36879;51.416;6.678;2023-06-22T13:52:54;80.70;;;57.88;;
50900;SDS011;36879;51.416;6.678;2023-06-22T13:55:21;73.22;;;52.58;;
50900;SDS011;36879;51.416;6.678;2023-06-22T13:57:48;64.32;;;49.10;;
50900;SDS011;36879;51.416;6.678;2023-06-22T14:00:14;64.18;;;49.10;;
50900;SDS011;36879;51.416;6.678;2023-06-22T14:02:40;57.63;;;45.67;;
50900;SDS011;36879;51.416;6.678;2023-06-22T14:05:06;54.78;;;43.85;;
50900;SDS011;36879;51.416;6.678;2023-06-22T14:07:32;50.17;;;42.15;;
50900;SDS011;36879;51.416;6.678;2023-06-22T14:09:59;47.97;;;42.00;;
50900;SDS011;36879;51.416;6.678;2023-06-22T14:12:25;48.30;;;40.10;;
50900;SDS011;36879;51.416;6.678;2023-06-22T14:14:51;48.70;;;41.22;;
50900;SDS011;36879;51.416;6.678;2023-06-22T14:17:17;38.50;;;34.33;;
50900;SDS011;36879;51.416;6.678;2023-06-22T14:19:49;39.78;;;34.17;;
50900;SDS011;36879;51.416;6.678;2023-06-22T14:22:17;39.38;;;33.50;;
50900;SDS011;36879;51.416;6.678;2023-06-22T14:24:43;41.17;;;33.72;;
50900;SDS011;36879;51.416;6.678;2023-06-22T14:27:09;42.92;;;35.97;;
50900;SDS011;36879;51.416;6.678;2023-06-22T14:29:35;43.22;;;34.72;;
50900;SDS011;36879;51.416;6.678;2023-06-22T14:32:01;44.00;;;34.42;;
50900;SDS011;36879;51.416;6.678;2023-06-22T14:34:27;37.45;;;33.30;;
50900;SDS011;36879;51.416;6.678;2023-06-22T14:36:53;39.13;;;32.53;;
50900;SDS011;36879;51.416;6.678;2023-06-22T14:39:19;40.08;;;34.10;;
50900;SDS011;36879;51.416;6.678;2023-06-22T14:41:46;34.53;;;30.80;;
50900;SDS011;36879;51.416;6.678;2023-06-22T14:44:12;41.72;;;33.72;;
50900;SDS011;36879;51.416;6.678;2023-06-22T14:46:38;37.22;;;32.10;;
50900;SDS011;36879;51.416;6.678;2023-06-22T14:49:04;35.63;;;30.77;;
50900;SDS011;36879;51.416;6.678;2023-06-22T14:51:30;37.95;;;32.75;;
50900;SDS011;36879;51.416;6.678;2023-06-22T14:53:56;35.83;;;31.92;;
50900;SDS011;36879;51.416;6.678;2023-06-22T14:56:21;36.47;;;31.50;;
50900;SDS011;36879;51.416;6.678;2023-06-22T14:58:47;33.95;;;30.15;;
50900;SDS011;36879;51.416;6.678;2023-06-22T15:01:14;41.30;;;33.20;;
50900;SDS011;36879;51.416;6.678;2023-06-22T15:03:40;35.45;;;30.67;;
50900;SDS011;36879;51.416;6.678;2023-06-22T15:06:06;35.90;;;30.73;;
50900;SDS011;36879;51.416;6.678;2023-06-22T15:08:32;47.75;;;32.20;;
50900;SDS011;36879;51.416;6.678;2023-06-22T15:10:58;49.10;;;35.72;;
50900;SDS011;36879;51.416;6.678;2023-06-22T15:13:26;54.47;;;39.00;;
50900;SDS011;36879;51.416;6.678;2023-06-22T15:15:52;56.00;;;42.08;;
50900;SDS011;36879;51.416;6.678;2023-06-22T15:18:19;63.60;;;45.33;;
50900;SDS011;36879;51.416;6.678;2023-06-22T15:20:45;63.80;;;46.55;;
50900;SDS011;36879;51.416;6.678;2023-06-22T15:23:14;64.80;;;47.63;;
50900;SDS011;36879;51.416;6.678;2023-06-22T15:25:40;70.80;;;47.30;;
50900;SDS011;36879;51.416;6.678;2023-06-22T15:28:06;80.10;;;52.53;;
50900;SDS011;36879;51.416;6.678;2023-06-22T15:30:33;71.68;;;50.35;;
50900;SDS011;36879;51.416;6.678;2023-06-22T15:32:59;69.60;;;49.67;;
50900;SDS011;36879;51.416;6.678;2023-06-22T15:35:26;73.80;;;49.28;;
50900;SDS011;36879;51.416;6.678;2023-06-22T15:37:51;67.93;;;48.97;;
50900;SDS011;36879;51.416;6.678;2023-06-22T15:40:17;75.38;;;51.35;;
50900;SDS011;36879;51.416;6.678;2023-06-22T15:42:44;73.35;;;50.63;;
50900;SDS011;36879;51.416;6.678;2023-06-22T15:45:13;71.90;;;51.67;;
50900;SDS011;36879;51.416;6.678;2023-06-22T15:47:39;69.30;;;49.30;;
50900;SDS011;36879;51.416;6.678;2023-06-22T15:50:05;73.72;;;53.72;;
50900;SDS011;36879;51.416;6.678;2023-06-22T15:52:31;69.15;;;50.33;;
50900;SDS011;36879;51.416;6.678;2023-06-22T15:54:57;64.65;;;47.63;;
50900;SDS011;36879;51.416;6.678;2023-06-22T15:57:25;63.17;;;47.97;;
50900;SDS011;36879;51.416;6.678;2023-06-22T15:59:51;60.25;;;45.80;;
50900;SDS011;36879;51.416;6.678;2023-06-22T16:02:17;58.00;;;44.28;;
50900;SDS011;36879;51.416;6.678;2023-06-22T16:04:43;67.72;;;47.90;;
50900;SDS011;36879;51.416;6.678;2023-06-22T16:07:09;74.57;;;48.90;;
50900;SDS011;36879;51.416;6.678;2023-06-22T16:09:37;79.63;;;52.42;;
50900;SDS011;36879;51.416;6.678;2023-06-22T16:12:03;85.38;;;54.08;;
50900;SDS011;36879;51.416;6.678;2023-06-22T16:14:30;91.50;;;57.90;;
50900;SDS011;36879;51.416;6.678;2023-06-22T16:16:56;87.32;;;58.50;;
50900;SDS011;36879;51.416;6.678;2023-06-22T16:19:22;100.50;;;58.13;;
50900;SDS011;36879;51.416;6.678;2023-06-22T16:21:48;102.95;;;60.47;;
50900;SDS011;36879;51.416;6.678;2023-06-22T16:24:14;106.53;;;61.80;;
50900;SDS011;36879;51.416;6.678;2023-06-22T16:26:41;120.85;;;64.63;;
50900;SDS011;36879;51.416;6.678;2023-06-22T16:29:08;121.13;;;63.95;;
50900;SDS011;36879;51.416;6.678;2023-06-22T16:31:34;116.18;;;65.20;;
50900;SDS011;36879;51.416;6.678;2023-06-22T16:34:01;133.43;;;68.95;;
50900;SDS011;36879;51.416;6.678;2023-06-22T16:36:27;136.15;;;69.57;;
50900;SDS011;36879;51.416;6.678;2023-06-22T16:38:53;151.82;;;72.82;;
50900;SDS011;36879;51.416;6.678;2023-06-22T16:41:18;151.20;;;84.65;;
50900;SDS011;36879;51.416;6.678;2023-06-22T16:43:44;140.13;;;74.13;;
50900;SDS011;36879;51.416;6.678;2023-06-22T16:46:10;145.50;;;78.78;;
50900;SDS011;36879;51.416;6.678;2023-06-22T16:48:36;144.65;;;81.38;;
50900;SDS011;36879;51.416;6.678;2023-06-22T16:51:02;146.55;;;80.65;;
50900;SDS011;36879;51.416;6.678;2023-06-22T16:53:29;151.85;;;78.53;;
50900;SDS011;36879;51.416;6.678;2023-06-22T16:55:55;159.10;;;81.30;;
50900;SDS011;36879;51.416;6.678;2023-06-22T16:58:22;157.38;;;86.55;;
50900;SDS011;36879;51.416;6.678;2023-06-22T17:00:52;165.85;;;87.55;;
50900;SDS011;36879;51.416;6.678;2023-06-22T17:04:04;163.57;;;91.53;;
50900;SDS011;36879;51.416;6.678;2023-06-22T17:06:04;171.80;;;88.05;;
50900;SDS011;36879;51.416;6.678;2023-06-22T17:08:31;177.27;;;88.40;;
50900;SDS011;36879;51.416;6.678;2023-06-22T17:10:59;164.13;;;88.50;;
50900;SDS011;36879;51.416;6.678;2023-06-22T17:13:25;168.70;;;90.43;;
50900;SDS011;36879;51.416;6.678;2023-06-22T17:15:53;168.48;;;88.32;;
50900;SDS011;36879;51.416;6.678;2023-06-22T17:18:21;177.10;;;87.47;;
50900;SDS011;36879;51.416;6.678;2023-06-22T17:20:50;182.55;;;89.85;;
50900;SDS011;36879;51.416;6.678;2023-06-22T17:23:16;180.40;;;89.53;;
50900;SDS011;36879;51.416;6.678;2023-06-22T17:25:42;206.13;;;94.05;;
50900;SDS011;36879;51.416;6.678;2023-06-22T17:28:08;182.38;;;87.47;;
50900;SDS011;36879;51.416;6.678;2023-06-22T17:30:34;185.38;;;88.95;;
50900;SDS011;36879;51.416;6.678;2023-06-22T17:33:00;180.05;;;93.22;;
50900;SDS011;36879;51.416;6.678;2023-06-22T17:35:29;190.20;;;91.55;;
50900;SDS011;36879;51.416;6.678;2023-06-22T17:37:55;171.68;;;86.72;;
50900;SDS011;36879;51.416;6.678;2023-06-22T17:40:22;182.38;;;86.57;;
50900;SDS011;36879;51.416;6.678;2023-06-22T17:42:49;188.20;;;91.70;;
50900;SDS011;36879;51.416;6.678;2023-06-22T17:47:42;194.02;;;98.00;;
50900;SDS011;36879;51.416;6.678;2023-06-22T17:50:08;197.98;;;96.63;;
50900;SDS011;36879;51.416;6.678;2023-06-22T17:52:34;200.77;;;104.38;;
50900;SDS011;36879;51.416;6.678;2023-06-22T17:55:01;210.10;;;102.25;;
50900;SDS011;36879;51.416;6.678;2023-06-22T17:57:33;213.80;;;105.28;;
50900;SDS011;36879;51.416;6.678;2023-06-22T18:00:01;263.35;;;116.93;;
50900;SDS011;36879;51.416;6.678;2023-06-22T18:02:27;223.05;;;114.97;;
50900;SDS011;36879;51.416;6.678;2023-06-22T18:04:56;217.52;;;109.53;;
50900;SDS011;36879;51.416;6.678;2023-06-22T18:07:23;250.80;;;115.47;;
50900;SDS011;36879;51.416;6.678;2023-06-22T18:09:49;222.50;;;112.25;;
50900;SDS011;36879;51.416;6.678;2023-06-22T18:12:16;225.82;;;105.88;;
50900;SDS011;36879;51.416;6.678;2023-06-22T18:14:42;211.55;;;105.40;;
50900;SDS011;36879;51.416;6.678;2023-06-22T18:17:08;175.23;;;92.63;;
50900;SDS011;36879;51.416;6.678;2023-06-22T18:19:34;192.02;;;93.53;;
50900;SDS011;36879;51.416;6.678;2023-06-22T18:22:03;225.00;;;98.10;;
50900;SDS011;36879;51.416;6.678;2023-06-22T18:24:29;219.63;;;97.72;;
50900;SDS011;36879;51.416;6.678;2023-06-22T18:26:56;167.30;;;84.15;;
50900;SDS011;36879;51.416;6.678;2023-06-22T18:29:22;187.75;;;87.15;;
50900;SDS011;36879;51.416;6.678;2023-06-22T18:31:50;205.80;;;87.43;;
50900;SDS011;36879;51.416;6.678;2023-06-22T18:34:16;176.50;;;80.30;;
50900;SDS011;36879;51.416;6.678;2023-06-22T18:36:43;165.80;;;76.03;;
50900;SDS011;36879;51.416;6.678;2023-06-22T18:39:11;167.45;;;77.65;;
50900;SDS011;36879;51.416;6.678;2023-06-22T18:41:38;170.48;;;76.38;;
50900;SDS011;36879;51.416;6.678;2023-06-22T18:44:11;164.90;;;73.53;;
50900;SDS011;36879;51.416;6.678;2023-06-22T18:46:44;170.60;;;78.70;;
50900;SDS011;36879;51.416;6.678;2023-06-22T18:49:15;175.52;;;82.35;;
50900;SDS011;36879;51.416;6.678;2023-06-22T18:54:38;148.48;;;74.13;;
50900;SDS011;36879;51.416;6.678;2023-06-22T18:57:14;148.25;;;75.53;;
50900;SDS011;36879;51.416;6.678;2023-06-22T18:59:50;152.15;;;72.05;;
50900;SDS011;36879;51.416;6.678;2023-06-22T19:12:52;153.43;;;71.53;;
50900;SDS011;36879;51.416;6.678;2023-06-22T19:15:18;105.28;;;58.45;;
50900;SDS011;36879;51.416;6.678;2023-06-22T19:17:47;98.22;;;52.80;;
50900;SDS011;36879;51.416;6.678;2023-06-22T19:20:17;99.63;;;49.78;;
50900;SDS011;36879;51.416;6.678;2023-06-22T19:22:44;79.15;;;43.55;;
50900;SDS011;36879;51.416;6.678;2023-06-22T19:25:20;75.88;;;41.95;;
50900;SDS011;36879;51.416;6.678;2023-06-22T19:27:47;78.03;;;42.47;;
50900;SDS011;36879;51.416;6.678;2023-06-22T19:30:14;82.72;;;41.03;;
50900;SDS011;36879;51.416;6.678;2023-06-22T19:32:42;82.60;;;42.72;;
50900;SDS011;36879;51.416;6.678;2023-06-22T19:35:08;81.40;;;41.90;;
50900;SDS011;36879;51.416;6.678;2023-06-22T19:37:34;97.55;;;41.90;;
50900;SDS011;36879;51.416;6.678;2023-06-22T19:40:01;83.50;;;42.42;;
50900;SDS011;36879;51.416;6.678;2023-06-22T19:42:29;89.60;;;41.50;;
50900;SDS011;36879;51.416;6.678;2023-06-22T19:44:57;78.25;;;39.85;;
50900;SDS011;36879;51.416;6.678;2023-06-22T19:47:23;75.63;;;36.30;;
50900;SDS011;36879;51.416;6.678;2023-06-22T19:49:57;74.18;;;36.85;;
50900;SDS011;36879;51.416;6.678;2023-06-22T19:52:23;79.15;;;35.67;;
50900;SDS011;36879;51.416;6.678;2023-06-22T19:54:49;67.97;;;33.40;;
50900;SDS011;36879;51.416;6.678;2023-06-22T19:57:15;65.82;;;33.30;;
50900;SDS011;36879;51.416;6.678;2023-06-22T19:59:41;72.20;;;35.25;;
50900;SDS011;36879;51.416;6.678;2023-06-22T20:02:09;63.63;;;35.22;;
50900;SDS011;36879;51.416;6.678;2023-06-22T20:04:36;76.82;;;37.47;;
50900;SDS011;36879;51.416;6.678;2023-06-22T20:07:03;78.22;;;38.95;;
50900;SDS011;36879;51.416;6.678;2023-06-22T20:09:29;66.35;;;35.72;;
50900;SDS011;36879;51.416;6.678;2023-06-22T20:11:58;67.40;;;38.13;;
50900;SDS011;36879;51.416;6.678;2023-06-22T20:14:32;71.38;;;39.00;;
50900;SDS011;36879;51.416;6.678;2023-06-22T20:16:58;79.72;;;40.60;;
50900;SDS011;36879;51.416;6.678;2023-06-22T20:19:34;75.63;;;39.95;;
50900;SDS011;36879;51.416;6.678;2023-06-22T20:22:06;73.07;;;44.85;;
50900;SDS011;36879;51.416;6.678;2023-06-22T20:24:32;80.10;;;45.42;;
50900;SDS011;36879;51.416;6.678;2023-06-22T20:26:59;80.18;;;43.25;;
50900;SDS011;36879;51.416;6.678;2023-06-22T20:32:04;79.47;;;44.63;;
50900;SDS011;36879;51.416;6.678;2023-06-22T20:34:37;84.18;;;42.63;;
50900;SDS011;36879;51.416;6.678;2023-06-22T20:37:03;71.88;;;42.25;;
50900;SDS011;36879;51.416;6.678;2023-06-22T20:39:29;74.75;;;43.30;;
50900;SDS011;36879;51.416;6.678;2023-06-22T20:41:57;83.35;;;44.65;;
50900;SDS011;36879;51.416;6.678;2023-06-22T20:44:23;89.78;;;47.53;;
50900;SDS011;36879;51.416;6.678;2023-06-22T20:46:49;86.93;;;47.00;;
50900;SDS011;36879;51.416;6.678;2023-06-22T20:49:15;87.10;;;45.22;;
50900;SDS011;36879;51.416;6.678;2023-06-22T20:51:41;81.03;;;42.95;;
50900;SDS011;36879;51.416;6.678;2023-06-22T20:54:07;91.38;;;44.88;;
50900;SDS011;36879;51.416;6.678;2023-06-22T20:56:33;85.07;;;45.90;;
50900;SDS011;36879;51.416;6.678;2023-06-22T20:59:00;81.22;;;41.60;;
50900;SDS011;36879;51.416;6.678;2023-06-22T21:01:26;78.53;;;38.35;;
50900;SDS011;36879;51.416;6.678;2023-06-22T21:03:57;73.32;;;37.97;;